createdAt,value
2022-08-29T00:00:23.337Z,99.90
2022-08-29T00:02:53.130Z,99.90
2022-08-29T00:05:22.235Z,99.90
2022-08-29T00:07:52.130Z,99.90
2022-08-29T00:10:20.414Z,99.90
2022-08-29T00:12:47.164Z,99.90
2022-08-29T00:15:14.406Z,99.90
2022-08-29T00:17:41.718Z,99.90
2022-08-29T00:20:13.749Z,99.90
2022-08-29T00:22:40.656Z,99.90
2022-08-29T00:25:07.917Z,99.90
2022-08-29T00:27:34.871Z,99.90
2022-08-29T00:30:02.096Z,99.90
2022-08-29T00:32:34.991Z,99.90
2022-08-29T00:35:06.266Z,99.90
2022-08-29T00:37:32.977Z,99.90
2022-08-29T00:39:59.793Z,99.90
2022-08-29T00:42:26.784Z,99.90
2022-08-29T00:44:53.626Z,99.90
2022-08-29T00:47:23.085Z,99.90
2022-08-29T00:49:52.007Z,99.90
2022-08-29T00:52:18.653Z,99.90
2022-08-29T00:54:47.880Z,99.90
2022-08-29T00:57:15.039Z,99.90
2022-08-29T00:59:41.869Z,99.90
2022-08-29T01:02:10.225Z,99.90
2022-08-29T01:04:37.794Z,99.90
2022-08-29T01:07:04.439Z,99.90
2022-08-29T01:09:31.811Z,99.90
2022-08-29T01:12:16.825Z,99.90
2022-08-29T01:14:48.106Z,99.90
2022-08-29T01:17:16.200Z,99.90
2022-08-29T01:19:42.918Z,99.90
2022-08-29T01:22:30.035Z,99.90
2022-08-29T01:24:57.169Z,99.90
2022-08-29T01:27:27.129Z,99.90
2022-08-29T01:29:53.847Z,99.90
2022-08-29T01:32:20.600Z,99.90
2022-08-29T01:34:47.404Z,99.90
2022-08-29T01:37:15.167Z,99.90
2022-08-29T01:39:43.064Z,99.90
2022-08-29T01:42:14.907Z,99.90
2022-08-29T01:44:41.853Z,99.90
2022-08-29T01:47:09.127Z,99.90
2022-08-29T01:49:37.826Z,99.90
2022-08-29T01:52:08.019Z,99.90
2022-08-29T01:54:35.251Z,99.90
2022-08-29T01:57:01.980Z,99.90
2022-08-29T01:59:29.891Z,99.90
2022-08-29T02:02:00.916Z,99.90
2022-08-29T02:04:27.767Z,99.90
2022-08-29T02:06:56.142Z,99.90
2022-08-29T02:09:23.393Z,99.90
2022-08-29T02:11:52.573Z,99.90
2022-08-29T02:14:19.934Z,99.90
2022-08-29T02:16:47.411Z,99.90
2022-08-29T02:19:14.871Z,99.90
2022-08-29T02:21:41.516Z,99.90
2022-08-29T02:24:24.452Z,99.90
2022-08-29T02:26:52.282Z,99.90
2022-08-29T02:29:18.929Z,99.90
2022-08-29T02:31:45.709Z,99.90
2022-08-29T02:34:13.153Z,99.90
2022-08-29T02:36:40.806Z,99.90
2022-08-29T02:39:08.337Z,99.90
2022-08-29T02:41:36.101Z,99.90
2022-08-29T02:44:03.330Z,99.90
2022-08-29T02:46:30.047Z,99.90
2022-08-29T02:49:01.331Z,99.90
2022-08-29T02:51:29.721Z,99.90
2022-08-29T02:53:56.653Z,99.90
2022-08-29T02:56:23.301Z,99.90
2022-08-29T02:58:50.610Z,99.90
2022-08-29T03:01:18.540Z,99.90
2022-08-29T03:03:45.367Z,99.90
2022-08-29T03:06:12.902Z,99.90
2022-08-29T03:08:39.694Z,99.90
2022-08-29T03:11:06.626Z,99.90
2022-08-29T03:13:34.069Z,99.90
2022-08-29T03:16:02.420Z,99.90
2022-08-29T03:18:29.722Z,99.90
2022-08-29T03:20:57.458Z,99.90
2022-08-29T03:23:24.106Z,99.90
2022-08-29T03:25:51.045Z,99.90
2022-08-29T03:28:17.897Z,99.90
2022-08-29T03:30:45.069Z,99.90
2022-08-29T03:33:12.179Z,99.90
2022-08-29T03:35:39.335Z,99.90
2022-08-29T03:38:06.313Z,99.90
2022-08-29T03:40:34.033Z,99.90
2022-08-29T03:43:00.808Z,99.90
2022-08-29T03:45:27.434Z,99.90
2022-08-29T03:47:54.215Z,99.90
2022-08-29T03:50:21.399Z,99.90
2022-08-29T03:52:48.827Z,99.90
2022-08-29T03:55:16.045Z,99.90
2022-08-29T03:57:43.126Z,99.90
2022-08-29T04:00:11.981Z,99.90
2022-08-29T04:02:39.462Z,99.90
2022-08-29T04:05:09.926Z,99.90
2022-08-29T04:07:47.929Z,99.90
2022-08-29T04:10:22.656Z,99.90
2022-08-29T04:12:54.260Z,99.90
2022-08-29T04:15:21.738Z,99.90
2022-08-29T04:17:52.935Z,99.90
2022-08-29T04:20:24.726Z,99.90
2022-08-29T04:22:52.922Z,99.90
2022-08-29T04:25:19.668Z,99.90
2022-08-29T04:27:46.341Z,99.90
2022-08-29T04:30:14.606Z,99.90
2022-08-29T04:32:41.609Z,99.90
2022-08-29T04:35:08.593Z,99.90
2022-08-29T04:37:35.255Z,99.90
2022-08-29T04:40:02.008Z,99.90
2022-08-29T04:42:28.719Z,99.90
2022-08-29T04:44:55.578Z,99.90
2022-08-29T04:47:22.334Z,99.90
2022-08-29T04:49:53.234Z,99.90
2022-08-29T04:52:22.747Z,99.90
2022-08-29T04:54:50.255Z,99.90
2022-08-29T04:57:16.914Z,99.90
2022-08-29T04:59:44.521Z,99.90
2022-08-29T05:02:11.499Z,99.90
2022-08-29T05:04:38.230Z,99.90
2022-08-29T05:07:04.958Z,99.90
2022-08-29T05:09:31.620Z,99.90
2022-08-29T05:11:58.486Z,99.90
2022-08-29T05:14:25.129Z,99.90
2022-08-29T05:16:52.109Z,99.90
2022-08-29T05:19:19.387Z,99.90
2022-08-29T05:21:46.321Z,99.90
2022-08-29T05:24:16.055Z,99.90
2022-08-29T05:26:44.429Z,99.90
2022-08-29T05:29:13.254Z,99.90
2022-08-29T05:31:42.007Z,99.90
2022-08-29T05:34:32.032Z,99.90
2022-08-29T05:36:59.137Z,99.90
2022-08-29T05:39:25.865Z,99.90
2022-08-29T05:41:56.384Z,99.90
2022-08-29T05:44:23.257Z,99.90
2022-08-29T05:46:50.421Z,99.90
2022-08-29T05:49:17.078Z,99.90
2022-08-29T05:51:43.756Z,99.90
2022-08-29T05:54:10.417Z,99.90
2022-08-29T05:56:37.098Z,99.90
2022-08-29T05:59:03.794Z,99.90
2022-08-29T06:01:32.722Z,99.90
2022-08-29T06:04:00.520Z,99.90
2022-08-29T06:06:28.582Z,99.90
2022-08-29T06:08:55.980Z,99.90
2022-08-29T06:11:24.145Z,99.90
2022-08-29T06:13:50.964Z,99.90
2022-08-29T06:16:19.014Z,99.90
2022-08-29T06:18:46.230Z,99.90
2022-08-29T06:21:13.340Z,99.90
2022-08-29T06:23:40.713Z,99.90
2022-08-29T06:26:07.898Z,99.90
2022-08-29T06:28:56.085Z,99.90
2022-08-29T06:31:27.182Z,99.90
2022-08-29T06:33:55.097Z,99.90
2022-08-29T06:36:22.249Z,99.90
2022-08-29T06:38:49.082Z,99.90
2022-08-29T06:41:16.652Z,99.90
2022-08-29T06:43:43.601Z,99.90
2022-08-29T06:46:19.586Z,99.90
2022-08-29T06:48:46.670Z,99.90
2022-08-29T06:51:13.492Z,99.90
2022-08-29T06:53:40.594Z,99.90
2022-08-29T06:56:11.139Z,99.90
2022-08-29T06:58:38.711Z,99.90
2022-08-29T07:01:06.950Z,99.90
2022-08-29T07:03:34.053Z,99.90
2022-08-29T07:06:01.124Z,99.90
2022-08-29T07:08:27.918Z,99.90
2022-08-29T07:10:54.723Z,99.90
2022-08-29T07:13:21.585Z,99.90
2022-08-29T07:15:48.374Z,99.90
2022-08-29T07:18:15.382Z,99.90
2022-08-29T07:20:42.297Z,99.90
2022-08-29T07:23:09.140Z,99.90
2022-08-29T07:25:37.430Z,99.90
2022-08-29T07:28:04.954Z,99.90
2022-08-29T07:30:31.857Z,99.90
2022-08-29T07:32:59.220Z,99.90
2022-08-29T07:35:30.437Z,99.90
2022-08-29T07:38:03.384Z,99.90
2022-08-29T07:40:30.089Z,99.90
2022-08-29T07:42:56.812Z,99.90
2022-08-29T07:45:23.518Z,99.90
2022-08-29T07:47:50.186Z,99.90
2022-08-29T07:50:17.142Z,99.90
2022-08-29T07:52:43.825Z,99.90
2022-08-29T07:55:10.653Z,99.90
2022-08-29T07:57:39.780Z,99.90
2022-08-29T08:00:09.865Z,99.90
2022-08-29T08:02:36.548Z,99.90
2022-08-29T08:05:03.288Z,99.90
2022-08-29T08:07:35.255Z,99.90
2022-08-29T08:10:02.734Z,99.90
2022-08-29T08:12:29.499Z,99.90
2022-08-29T08:14:57.122Z,99.90
2022-08-29T08:17:24.139Z,99.90
2022-08-29T08:19:50.907Z,99.90
2022-08-29T08:22:17.549Z,99.90
2022-08-29T08:24:44.993Z,99.90
2022-08-29T08:27:11.893Z,99.90
2022-08-29T08:29:38.500Z,99.90
2022-08-29T08:32:05.186Z,99.90
2022-08-29T08:34:35.754Z,99.90
2022-08-29T08:37:07.096Z,99.90
2022-08-29T08:39:34.084Z,99.90
2022-08-29T08:42:04.381Z,99.90
2022-08-29T08:44:37.744Z,99.90
2022-08-29T08:47:06.979Z,99.90
2022-08-29T08:49:40.657Z,99.90
2022-08-29T08:52:10.612Z,99.90
2022-08-29T08:54:43.949Z,99.90
2022-08-29T08:57:11.369Z,99.90
2022-08-29T08:59:46.422Z,99.90
2022-08-29T09:02:22.934Z,99.90
2022-08-29T09:05:03.201Z,99.90
2022-08-29T09:07:42.037Z,99.90
2022-08-29T09:10:08.668Z,99.90
2022-08-29T09:12:35.312Z,99.90
2022-08-29T09:15:13.461Z,99.90
2022-08-29T09:17:42.223Z,99.90
2022-08-29T09:20:14.096Z,99.90
2022-08-29T09:22:41.567Z,99.90
2022-08-29T09:25:09.359Z,99.90
2022-08-29T09:27:36.868Z,99.90
2022-08-29T09:30:08.914Z,99.90
2022-08-29T09:32:51.308Z,99.90
2022-08-29T09:35:19.054Z,99.90
2022-08-29T09:37:54.973Z,99.90
2022-08-29T09:40:21.903Z,99.90
2022-08-29T09:42:59.958Z,99.90
2022-08-29T09:45:26.630Z,99.90
2022-08-29T09:48:19.624Z,99.90
2022-08-29T09:50:46.301Z,99.90
2022-08-29T09:53:24.981Z,99.90
2022-08-29T09:55:52.411Z,99.90
2022-08-29T09:58:19.154Z,99.90
2022-08-29T10:01:05.513Z,99.90
2022-08-29T10:03:34.755Z,99.90
2022-08-29T10:06:15.875Z,99.90
2022-08-29T10:08:54.465Z,99.90
2022-08-29T10:11:23.806Z,99.90
2022-08-29T10:13:52.532Z,99.90
2022-08-29T10:16:33.217Z,99.90
2022-08-29T10:19:02.269Z,99.90
2022-08-29T10:21:48.161Z,99.90
2022-08-29T10:24:19.506Z,99.90
2022-08-29T10:26:49.479Z,99.90
2022-08-29T10:29:19.231Z,99.90
2022-08-29T10:32:06.356Z,99.90
2022-08-29T10:34:52.569Z,99.90
2022-08-29T10:37:33.000Z,99.90
2022-08-29T10:40:09.714Z,99.90
2022-08-29T10:42:39.704Z,99.90
2022-08-29T10:45:13.712Z,99.90
2022-08-29T10:47:56.648Z,99.90
2022-08-29T10:50:46.727Z,99.90
2022-08-29T10:53:16.632Z,99.90
2022-08-29T10:55:57.633Z,99.90
2022-08-29T10:58:43.680Z,99.90
2022-08-29T11:01:22.278Z,99.90
2022-08-29T11:04:00.478Z,99.90
2022-08-29T11:06:33.057Z,99.90
2022-08-29T11:09:08.624Z,99.90
2022-08-29T11:11:36.471Z,99.90
2022-08-29T11:14:06.970Z,99.90
2022-08-29T11:16:45.253Z,99.90
2022-08-29T11:19:13.025Z,99.90
2022-08-29T11:21:42.702Z,99.90
2022-08-29T11:24:14.026Z,99.90
2022-08-29T11:26:43.646Z,99.90
2022-08-29T11:29:10.604Z,99.90
2022-08-29T11:31:37.297Z,99.90
2022-08-29T11:34:21.499Z,99.90
2022-08-29T11:36:54.304Z,99.90
2022-08-29T11:39:23.908Z,99.90
2022-08-29T11:41:54.160Z,99.90
2022-08-29T11:44:37.784Z,99.90
2022-08-29T11:47:31.121Z,99.90
2022-08-29T11:50:16.845Z,99.90
2022-08-29T11:53:04.065Z,99.90
2022-08-29T11:55:38.033Z,99.90
2022-08-29T11:58:13.437Z,99.90
2022-08-29T12:00:43.250Z,99.90
2022-08-29T12:03:29.321Z,99.90
2022-08-29T12:05:59.440Z,99.90
2022-08-29T12:08:46.303Z,99.90
2022-08-29T12:11:13.298Z,99.90
2022-08-29T12:13:46.122Z,99.90
2022-08-29T12:16:14.908Z,99.90
2022-08-29T12:18:49.301Z,99.90
2022-08-29T12:21:32.758Z,99.90
2022-08-29T12:23:59.728Z,99.90
2022-08-29T12:26:40.337Z,99.90
2022-08-29T12:29:10.597Z,99.90
2022-08-29T12:32:02.197Z,99.90
2022-08-29T12:34:31.265Z,99.90
2022-08-29T12:37:07.047Z,99.90
2022-08-29T12:39:36.718Z,99.90
2022-08-29T12:42:17.747Z,99.90
2022-08-29T12:44:46.223Z,99.90
2022-08-29T12:47:19.347Z,99.90
2022-08-29T12:49:51.434Z,99.90
2022-08-29T12:52:23.455Z,99.90
2022-08-29T12:54:54.345Z,99.90
2022-08-29T12:57:31.286Z,99.90
2022-08-29T12:59:58.208Z,99.90
2022-08-29T13:02:27.057Z,99.90
2022-08-29T13:04:53.876Z,99.90
2022-08-29T13:09:57.275Z,99.90
2022-08-29T13:12:31.502Z,99.90
2022-08-29T13:15:00.996Z,99.90
2022-08-29T13:17:39.748Z,99.90
2022-08-29T13:20:25.624Z,99.90
2022-08-29T13:23:03.716Z,99.90
2022-08-29T13:25:30.678Z,99.90
2022-08-29T13:28:01.552Z,99.90
2022-08-29T13:30:28.967Z,99.90
2022-08-29T13:32:55.859Z,99.90
2022-08-29T13:35:31.548Z,99.90
2022-08-29T13:38:21.612Z,99.90
2022-08-29T13:40:49.471Z,99.90
2022-08-29T13:43:48.290Z,99.90
2022-08-29T13:46:15.414Z,99.90
2022-08-29T13:48:42.573Z,99.90
2022-08-29T13:51:09.352Z,99.90
2022-08-29T13:53:36.224Z,99.90
2022-08-29T13:56:03.025Z,99.90
2022-08-29T13:58:31.147Z,99.90
2022-08-29T14:00:57.980Z,99.90
2022-08-29T14:03:25.137Z,99.90
2022-08-29T14:05:56.325Z,99.90
2022-08-29T14:08:24.126Z,99.90
2022-08-29T14:10:51.111Z,99.80
2022-08-29T14:13:17.846Z,99.90
2022-08-29T14:15:44.513Z,99.90
2022-08-29T14:18:11.895Z,99.90
2022-08-29T14:20:39.106Z,99.90
2022-08-29T14:23:06.175Z,99.90
2022-08-29T14:25:32.796Z,99.90
2022-08-29T14:27:59.678Z,99.90
2022-08-29T14:30:26.639Z,99.90
2022-08-29T14:32:53.403Z,99.90
2022-08-29T14:35:26.506Z,99.90
2022-08-29T14:37:58.632Z,99.90
2022-08-29T14:40:25.770Z,99.90
2022-08-29T14:42:52.691Z,99.90
2022-08-29T14:45:19.549Z,99.90
2022-08-29T14:47:47.350Z,99.90
2022-08-29T14:50:15.516Z,99.90
2022-08-29T14:52:42.461Z,99.90
2022-08-29T14:55:09.859Z,99.90
2022-08-29T14:57:36.782Z,99.90
2022-08-29T15:00:06.082Z,99.90
2022-08-29T15:02:32.857Z,99.90
2022-08-29T15:04:59.648Z,99.90
2022-08-29T15:07:26.415Z,99.90
2022-08-29T15:09:53.170Z,99.90
2022-08-29T15:12:21.622Z,99.90
2022-08-29T15:14:48.458Z,99.90
2022-08-29T15:17:15.417Z,99.90
2022-08-29T15:20:18.223Z,99.60
2022-08-29T15:22:28.840Z,99.70
2022-08-29T15:24:55.529Z,99.30
2022-08-29T15:27:27.566Z,99.60
2022-08-29T15:29:55.125Z,99.00
2022-08-29T15:32:22.088Z,98.70
2022-08-29T15:34:49.431Z,98.60
2022-08-29T15:37:16.251Z,99.10
2022-08-29T15:39:43.008Z,99.60
2022-08-29T15:42:11.306Z,99.90
2022-08-29T15:44:38.969Z,99.90
2022-08-29T15:47:05.693Z,99.90
2022-08-29T15:49:37.227Z,99.70
2022-08-29T15:52:03.967Z,99.50
2022-08-29T15:54:31.217Z,99.40
2022-08-29T15:56:58.104Z,99.90
2022-08-29T15:59:47.215Z,99.60
2022-08-29T16:02:11.879Z,99.70
2022-08-29T16:04:39.497Z,99.70
2022-08-29T16:07:06.215Z,99.90
2022-08-29T16:09:32.982Z,99.90
2022-08-29T16:11:59.656Z,99.90
2022-08-29T16:17:13.313Z,99.90
2022-08-29T16:19:41.969Z,99.80
2022-08-29T16:22:08.894Z,99.90
2022-08-29T16:24:35.850Z,99.80
2022-08-29T16:27:02.697Z,99.70
2022-08-29T16:29:29.338Z,99.70
2022-08-29T16:31:58.429Z,99.60
2022-08-29T16:34:25.862Z,99.80
2022-08-29T16:36:55.389Z,99.90
2022-08-29T16:39:22.125Z,99.90
2022-08-29T16:41:48.754Z,99.80
2022-08-29T16:44:15.488Z,99.80
2022-08-29T16:46:42.267Z,99.90
2022-08-29T16:49:08.980Z,99.90
2022-08-29T16:51:35.735Z,99.90
2022-08-29T16:54:02.458Z,99.90
2022-08-29T16:56:29.106Z,99.90
2022-08-29T16:59:02.810Z,99.90
2022-08-29T17:01:32.593Z,99.90
2022-08-29T17:04:01.630Z,99.90
2022-08-29T17:06:31.977Z,99.90
2022-08-29T17:08:58.986Z,99.90
2022-08-29T17:11:26.138Z,99.90
2022-08-29T17:13:52.804Z,99.90
2022-08-29T17:16:19.971Z,99.90
2022-08-29T17:18:46.788Z,99.90
2022-08-29T17:21:13.554Z,99.90
2022-08-29T17:23:40.562Z,99.90
2022-08-29T17:26:08.632Z,99.90
2022-08-29T17:28:35.976Z,99.90
2022-08-29T17:31:03.157Z,99.90
2022-08-29T17:33:29.960Z,99.90
2022-08-29T17:35:56.840Z,99.90
2022-08-29T17:38:24.055Z,99.90
2022-08-29T17:40:55.130Z,99.90
2022-08-29T17:43:22.028Z,99.90
2022-08-29T17:45:49.014Z,99.90
2022-08-29T17:48:16.144Z,99.90
2022-08-29T17:50:43.755Z,99.90
2022-08-29T17:53:10.471Z,99.90
2022-08-29T17:55:37.251Z,99.90
2022-08-29T17:58:04.102Z,99.90
2022-08-29T18:00:31.624Z,99.90
2022-08-29T18:02:58.335Z,99.90
2022-08-29T18:05:25.254Z,99.90
2022-08-29T18:07:51.986Z,99.90
2022-08-29T18:10:19.190Z,99.90
2022-08-29T18:12:46.861Z,99.90
2022-08-29T18:15:13.664Z,99.90
2022-08-29T18:17:41.040Z,99.90
2022-08-29T18:20:09.604Z,99.90
2022-08-29T18:22:36.574Z,99.90
2022-08-29T18:25:03.902Z,99.90
2022-08-29T18:27:31.087Z,99.90
2022-08-29T18:29:57.821Z,99.90
2022-08-29T18:32:25.593Z,99.90
2022-08-29T18:34:53.166Z,99.90
2022-08-29T18:37:23.238Z,99.90
2022-08-29T18:39:49.896Z,99.90
2022-08-29T18:42:36.806Z,99.90
2022-08-29T18:45:04.870Z,99.90
2022-08-29T18:47:31.581Z,99.90
2022-08-29T18:50:17.070Z,99.90
2022-08-29T18:52:44.263Z,99.90
2022-08-29T18:55:11.284Z,99.90
2022-08-29T18:57:44.933Z,99.90
2022-08-29T19:00:11.929Z,99.90
2022-08-29T19:02:38.915Z,99.90
2022-08-29T19:05:06.462Z,99.90
2022-08-29T19:07:33.292Z,99.90
2022-08-29T19:10:00.023Z,99.90
2022-08-29T19:12:26.799Z,99.90
2022-08-29T19:14:53.540Z,99.90
2022-08-29T19:17:20.474Z,99.90
2022-08-29T19:20:10.477Z,99.90
2022-08-29T19:22:39.143Z,99.90
2022-08-29T19:25:08.790Z,99.90
2022-08-29T19:27:44.337Z,99.90
2022-08-29T19:30:12.214Z,99.90
2022-08-29T19:32:39.295Z,99.90
2022-08-29T19:35:06.724Z,99.90
2022-08-29T19:37:33.409Z,99.90
2022-08-29T19:40:00.296Z,99.90
2022-08-29T19:42:28.143Z,99.90
2022-08-29T19:44:55.256Z,99.90
2022-08-29T19:47:23.440Z,99.90
2022-08-29T19:49:50.804Z,99.90
2022-08-29T19:52:17.750Z,99.90
2022-08-29T19:54:44.485Z,99.90
2022-08-29T19:57:14.746Z,99.90
2022-08-29T19:59:42.169Z,99.90
2022-08-29T20:02:09.470Z,99.90
2022-08-29T20:04:36.463Z,99.90
2022-08-29T20:07:03.450Z,99.90
2022-08-29T20:09:30.089Z,99.90
2022-08-29T20:11:57.383Z,99.90
2022-08-29T20:14:24.343Z,99.90
2022-08-29T20:16:51.748Z,99.90
2022-08-29T20:19:19.063Z,99.90
2022-08-29T20:21:46.198Z,99.90
2022-08-29T20:24:15.528Z,99.90
2022-08-29T20:26:44.349Z,99.90
2022-08-29T20:29:11.529Z,99.90
2022-08-29T20:31:38.626Z,99.90
2022-08-29T20:34:05.640Z,99.90
2022-08-29T20:36:51.204Z,99.90
2022-08-29T20:39:19.078Z,99.90
2022-08-29T20:41:52.377Z,99.90
2022-08-29T20:44:20.314Z,99.90
2022-08-29T20:46:47.991Z,99.90
2022-08-29T20:49:16.466Z,99.90
2022-08-29T20:51:46.229Z,99.90
2022-08-29T20:54:13.909Z,99.90
2022-08-29T20:56:40.885Z,99.90
2022-08-29T20:59:07.755Z,99.90
2022-08-29T21:01:35.939Z,99.90
2022-08-29T21:04:22.443Z,99.90
2022-08-29T21:06:53.057Z,99.90
2022-08-29T21:09:19.810Z,99.90
2022-08-29T21:11:46.449Z,99.90
2022-08-29T21:14:13.273Z,99.90
2022-08-29T21:16:40.178Z,99.90
2022-08-29T21:19:09.721Z,99.90
2022-08-29T21:21:37.029Z,99.90
2022-08-29T21:24:06.191Z,99.90
2022-08-29T21:26:33.136Z,99.90
2022-08-29T21:29:00.692Z,99.90
2022-08-29T21:31:27.482Z,99.90
2022-08-29T21:33:54.149Z,99.90
2022-08-29T21:36:22.791Z,99.90
2022-08-29T21:38:51.603Z,99.90
2022-08-29T21:41:18.309Z,99.90
2022-08-29T21:43:45.018Z,99.90
2022-08-29T21:46:14.727Z,99.90
2022-08-29T21:48:41.499Z,99.90
2022-08-29T21:51:08.204Z,99.90
2022-08-29T21:53:34.863Z,99.90
2022-08-29T21:56:07.217Z,99.90
2022-08-29T21:58:33.956Z,99.90
2022-08-29T22:01:00.624Z,99.90
2022-08-29T22:03:27.464Z,99.90
2022-08-29T22:05:54.500Z,99.90
2022-08-29T22:08:21.328Z,99.90
2022-08-29T22:10:48.294Z,99.90
2022-08-29T22:13:15.883Z,99.90
2022-08-29T22:16:01.541Z,99.90
2022-08-29T22:18:28.775Z,99.90
2022-08-29T22:20:58.246Z,99.90
2022-08-29T22:23:24.916Z,99.90
2022-08-29T22:25:52.168Z,99.90
2022-08-29T22:28:18.932Z,99.90
2022-08-29T22:30:45.665Z,99.90
2022-08-29T22:33:16.223Z,99.90
2022-08-29T22:35:43.754Z,99.90
2022-08-29T22:38:10.727Z,99.90
2022-08-29T22:40:37.439Z,99.90
2022-08-29T22:43:04.180Z,99.90
2022-08-29T22:45:31.693Z,99.90
2022-08-29T22:47:58.376Z,99.90
2022-08-29T22:50:25.563Z,99.90
2022-08-29T22:52:56.572Z,99.90
2022-08-29T22:57:49.518Z,99.90
2022-08-29T23:00:17.921Z,99.90
2022-08-29T23:02:44.875Z,99.90
2022-08-29T23:05:11.894Z,99.90
2022-08-29T23:07:38.643Z,99.90
2022-08-29T23:10:07.747Z,99.90
2022-08-29T23:12:37.600Z,99.90
2022-08-29T23:15:06.139Z,99.90
2022-08-29T23:17:32.782Z,99.90
2022-08-29T23:19:59.525Z,99.90
2022-08-29T23:22:26.686Z,99.90
2022-08-29T23:24:58.615Z,99.90
2022-08-29T23:27:26.978Z,99.90
2022-08-29T23:29:53.654Z,99.90
2022-08-29T23:32:20.353Z,99.90
2022-08-29T23:34:47.013Z,99.90
2022-08-29T23:37:13.814Z,99.90
2022-08-29T23:39:40.522Z,99.90
2022-08-29T23:42:07.258Z,99.90
2022-08-29T23:44:33.984Z,99.90
2022-08-29T23:47:00.729Z,99.90
2022-08-29T23:49:27.465Z,99.90
2022-08-29T23:51:54.197Z,99.90
2022-08-29T23:54:20.948Z,99.90
2022-08-29T23:56:47.703Z,99.90
2022-08-29T23:59:34.390Z,99.90
